Terminal Aerodrome Forecast
Issued by NWS

Home | Current Version | Previous Version | Text Only | Print | Product List | Glossary On
Versions: 1 2 3 4 5 6 7 8 9 10 11 12 13 14
467
FTUS42 KTBW 241142
TAFPGD
TAF
KPGD 241142Z 2412/2512 19011G16KT P6SM SCT015 BKN200
      TEMPO 2412/2415 BKN015
     FM241500 21018G25KT P6SM SCT025 OVC050
     FM241800 22024G33KT P6SM VCSH SCT025 OVC050
     FM242300 23020G28KT 6SM -RA VCTS SCT015CB OVC025
     FM250200 21015G22KT 6SM -RA VCTS SCT010CB OVC025=

USA.gov is the U.S. government's official web portal to all federal, state and local government web resources and services.